createdAt,value
2022-10-25T00:00:10.414Z,13.84
2022-10-25T00:02:41.000Z,13.80
2022-10-25T00:05:13.523Z,13.84
2022-10-25T00:07:41.616Z,13.79
2022-10-25T00:10:10.262Z,13.80
2022-10-25T00:12:42.818Z,13.82
2022-10-25T00:15:14.027Z,13.78
2022-10-25T00:17:42.351Z,13.79
2022-10-25T00:20:12.917Z,13.80
2022-10-25T00:22:41.207Z,13.78
2022-10-25T00:25:10.610Z,13.79
2022-10-25T00:27:38.696Z,13.77
2022-10-25T00:30:08.673Z,13.77
2022-10-25T00:32:37.161Z,13.77
2022-10-25T00:35:05.440Z,13.77
2022-10-25T00:37:34.640Z,13.77
2022-10-25T00:40:02.465Z,13.75
2022-10-25T00:42:30.302Z,13.74
2022-10-25T00:45:00.487Z,13.74
2022-10-25T00:47:41.322Z,13.76
2022-10-25T00:50:19.265Z,13.74
2022-10-25T00:52:52.541Z,13.73
2022-10-25T00:55:22.963Z,13.72
2022-10-25T00:57:55.432Z,13.73
2022-10-25T01:00:23.488Z,13.70
2022-10-25T01:02:51.836Z,13.70
2022-10-25T01:05:21.010Z,13.71
2022-10-25T01:07:50.289Z,13.72
2022-10-25T01:10:18.480Z,13.69
2022-10-25T01:12:48.561Z,13.68
2022-10-25T01:15:19.346Z,13.67
2022-10-25T01:17:54.389Z,13.71
2022-10-25T01:20:58.859Z,13.67
2022-10-25T01:23:45.851Z,13.67
2022-10-25T01:26:48.419Z,13.66
2022-10-25T01:29:48.083Z,13.63
2022-10-25T01:32:23.038Z,13.66
2022-10-25T01:34:57.357Z,13.68
2022-10-25T01:37:31.998Z,13.67
2022-10-25T01:40:07.805Z,13.68
2022-10-25T01:42:41.947Z,13.67
2022-10-25T01:45:14.298Z,13.69
2022-10-25T01:47:48.779Z,13.65
2022-10-25T01:50:22.460Z,13.67
2022-10-25T01:52:50.352Z,13.66
2022-10-25T01:55:20.709Z,13.67
2022-10-25T01:58:04.733Z,13.69
2022-10-25T02:00:40.053Z,13.68
2022-10-25T02:03:18.168Z,13.68
2022-10-25T02:06:00.793Z,13.67
2022-10-25T02:08:36.312Z,13.66
2022-10-25T02:11:10.277Z,13.68
2022-10-25T02:13:48.935Z,13.67
2022-10-25T02:16:20.625Z,13.65
2022-10-25T02:18:54.801Z,13.66
2022-10-25T02:21:25.864Z,13.65
2022-10-25T02:23:55.675Z,13.65
2022-10-25T02:26:24.293Z,13.63
2022-10-25T02:28:52.789Z,13.63
2022-10-25T02:31:23.193Z,13.64
2022-10-25T02:33:52.774Z,13.63
2022-10-25T02:36:22.396Z,13.64
2022-10-25T02:38:52.461Z,13.63
2022-10-25T02:45:19.901Z,13.56
2022-10-25T02:47:47.929Z,13.58
2022-10-25T02:50:17.443Z,13.61
2022-10-25T02:52:45.535Z,13.59
2022-10-25T02:55:13.462Z,13.59
2022-10-25T02:57:41.332Z,13.60
2022-10-25T03:02:44.074Z,13.59
2022-10-25T03:05:12.016Z,13.60
2022-10-25T03:07:41.204Z,13.62
2022-10-25T03:10:09.805Z,13.61
2022-10-25T03:12:37.666Z,13.61
2022-10-25T03:15:06.240Z,13.62
2022-10-25T03:17:34.170Z,13.62
2022-10-25T03:20:01.910Z,13.62
2022-10-25T03:22:29.689Z,13.62
2022-10-25T03:24:58.879Z,13.65
2022-10-25T03:27:26.767Z,13.62
2022-10-25T03:29:54.894Z,13.63
2022-10-25T03:32:22.795Z,13.62
2022-10-25T03:34:50.573Z,13.63
2022-10-25T03:37:18.359Z,13.63
2022-10-25T03:39:46.111Z,13.64
2022-10-25T03:42:15.559Z,13.66
2022-10-25T03:44:43.348Z,13.63
2022-10-25T03:47:11.237Z,13.65
2022-10-25T03:49:39.140Z,13.64
2022-10-25T03:52:07.318Z,13.65
2022-10-25T03:54:35.936Z,13.64
2022-10-25T03:57:04.356Z,13.63
2022-10-25T03:59:33.517Z,13.64
2022-10-25T04:02:02.086Z,13.65
2022-10-25T04:04:30.006Z,13.63
2022-10-25T04:06:57.927Z,13.63
2022-10-25T04:09:25.804Z,13.62
2022-10-25T04:11:53.721Z,13.63
2022-10-25T04:14:21.772Z,13.63
2022-10-25T04:16:51.051Z,13.64
2022-10-25T04:19:19.146Z,13.61
2022-10-25T04:21:47.648Z,13.61
2022-10-25T04:24:15.468Z,13.62
2022-10-25T04:26:43.321Z,13.62
2022-10-25T04:29:12.102Z,13.63
2022-10-25T04:31:39.911Z,13.62
2022-10-25T04:34:09.084Z,13.65
2022-10-25T04:36:36.973Z,13.63
2022-10-25T04:39:04.889Z,13.63
2022-10-25T04:41:33.073Z,13.64
2022-10-25T04:44:00.854Z,13.65
2022-10-25T04:46:28.669Z,13.65
2022-10-25T04:48:56.468Z,13.66
2022-10-25T04:51:25.696Z,13.67
2022-10-25T04:53:54.420Z,13.66
2022-10-25T04:56:22.476Z,13.68
2022-10-25T04:58:50.286Z,13.67
2022-10-25T05:01:19.537Z,13.68
2022-10-25T05:03:47.565Z,13.68
2022-10-25T05:06:18.152Z,13.69
2022-10-25T05:08:49.494Z,13.69
2022-10-25T05:11:19.033Z,13.69
2022-10-25T05:13:47.865Z,13.69
2022-10-25T05:16:20.271Z,13.69
2022-10-25T05:18:48.620Z,13.67
2022-10-25T05:21:17.408Z,13.69
2022-10-25T05:23:45.381Z,13.68
2022-10-25T05:26:17.019Z,13.70
2022-10-25T05:28:47.056Z,13.69
2022-10-25T05:31:16.622Z,13.69
2022-10-25T05:33:45.993Z,13.69
2022-10-25T05:36:15.079Z,13.68
2022-10-25T05:38:43.668Z,13.68
2022-10-25T05:41:13.121Z,13.68
2022-10-25T05:43:42.961Z,13.69
2022-10-25T05:46:13.413Z,13.68
2022-10-25T05:48:45.796Z,13.66
2022-10-25T05:51:33.343Z,13.67
2022-10-25T05:54:03.677Z,13.65
2022-10-25T05:56:33.088Z,13.64
2022-10-25T05:59:08.853Z,13.66
2022-10-25T06:01:37.716Z,13.64
2022-10-25T06:04:06.343Z,13.62
2022-10-25T06:06:34.691Z,13.62
2022-10-25T06:09:03.014Z,13.61
2022-10-25T06:11:31.527Z,13.61
2022-10-25T06:13:59.355Z,13.59
2022-10-25T06:16:28.902Z,13.60
2022-10-25T06:18:56.976Z,13.58
2022-10-25T06:21:27.328Z,13.58
2022-10-25T06:23:55.594Z,13.57
2022-10-25T06:26:25.413Z,13.58
2022-10-25T06:28:55.021Z,13.57
2022-10-25T06:31:23.430Z,13.56
2022-10-25T06:33:53.088Z,13.56
2022-10-25T06:36:22.629Z,13.56
2022-10-25T06:38:51.242Z,13.55
2022-10-25T06:41:20.857Z,13.56
2022-10-25T06:43:49.369Z,13.55
2022-10-25T06:46:21.834Z,13.56
2022-10-25T06:48:50.038Z,13.53
2022-10-25T06:51:19.948Z,13.56
2022-10-25T06:53:47.834Z,13.55
2022-10-25T06:56:15.781Z,13.54
2022-10-25T06:58:43.893Z,13.54
2022-10-25T07:01:13.255Z,13.55
2022-10-25T07:03:41.558Z,13.55
2022-10-25T07:06:11.056Z,13.56
2022-10-25T07:08:41.828Z,13.57
2022-10-25T07:11:15.414Z,13.58
2022-10-25T07:13:43.493Z,13.57
2022-10-25T07:16:14.301Z,13.60
2022-10-25T07:18:42.818Z,13.60
2022-10-25T07:21:13.116Z,13.63
2022-10-25T07:23:43.095Z,13.65
2022-10-25T07:26:12.739Z,13.65
2022-10-25T07:28:41.426Z,13.66
2022-10-25T07:31:09.266Z,13.66
2022-10-25T07:33:37.127Z,13.67
2022-10-25T07:36:10.661Z,13.68
2022-10-25T07:38:39.602Z,13.67
2022-10-25T07:41:09.493Z,13.70
2022-10-25T07:43:39.101Z,13.70
2022-10-25T07:46:07.898Z,13.70
2022-10-25T07:48:36.673Z,13.69
2022-10-25T07:51:05.871Z,13.71
2022-10-25T07:53:33.844Z,13.70
2022-10-25T07:56:01.704Z,13.70
2022-10-25T07:58:30.936Z,13.72
2022-10-25T08:01:03.389Z,13.72
2022-10-25T08:03:32.188Z,13.69
2022-10-25T08:06:00.676Z,13.71
2022-10-25T08:08:29.037Z,13.72
2022-10-25T08:10:57.712Z,13.72
2022-10-25T08:13:25.523Z,13.73
2022-10-25T08:15:56.446Z,13.76
2022-10-25T08:18:25.243Z,13.75
2022-10-25T08:21:08.285Z,13.76
2022-10-25T08:23:36.257Z,13.78
2022-10-25T08:26:04.515Z,13.80
2022-10-25T08:28:32.680Z,13.83
2022-10-25T08:31:02.113Z,13.86
2022-10-25T08:33:30.109Z,13.87
2022-10-25T08:36:00.897Z,13.91
2022-10-25T08:38:28.657Z,13.91
2022-10-25T08:41:04.202Z,13.96
2022-10-25T08:43:53.278Z,13.96
2022-10-25T08:46:27.234Z,13.99
2022-10-25T08:49:11.582Z,14.01
2022-10-25T08:51:42.785Z,14.04
2022-10-25T08:54:22.596Z,14.07
2022-10-25T08:57:10.781Z,14.10
2022-10-25T08:59:44.093Z,14.12
2022-10-25T09:02:19.508Z,14.19
2022-10-25T09:04:47.503Z,14.21
2022-10-25T09:07:30.096Z,14.28
2022-10-25T09:10:10.324Z,14.31
2022-10-25T09:12:43.960Z,14.37
2022-10-25T09:15:21.051Z,14.44
2022-10-25T09:17:52.019Z,14.48
2022-10-25T09:20:22.036Z,14.52
2022-10-25T09:22:55.385Z,14.57
2022-10-25T09:25:31.087Z,14.61
2022-10-25T09:28:01.128Z,14.64
2022-10-25T09:30:31.255Z,14.67
2022-10-25T09:33:04.311Z,14.69
2022-10-25T09:35:42.089Z,14.71
2022-10-25T09:38:16.997Z,14.73
2022-10-25T09:40:48.214Z,14.73
2022-10-25T09:43:19.818Z,14.75
2022-10-25T09:45:51.390Z,14.77
2022-10-25T09:48:28.565Z,14.80
2022-10-25T09:51:04.050Z,14.81
2022-10-25T09:53:34.359Z,14.83
2022-10-25T09:56:05.862Z,14.85
2022-10-25T09:58:36.394Z,14.85
2022-10-25T10:01:07.592Z,14.87
2022-10-25T10:03:37.913Z,14.87
2022-10-25T10:06:17.946Z,14.89
2022-10-25T10:08:51.876Z,14.87
2022-10-25T10:11:21.543Z,14.87
2022-10-25T10:13:54.847Z,14.88
2022-10-25T10:16:26.959Z,14.86
2022-10-25T10:19:14.763Z,14.83
2022-10-25T10:21:44.717Z,14.84
2022-10-25T10:24:18.594Z,14.87
2022-10-25T10:26:51.615Z,14.85
2022-10-25T10:29:23.105Z,14.88
2022-10-25T10:31:53.203Z,14.89
2022-10-25T10:34:28.379Z,14.91
2022-10-25T10:37:04.238Z,14.95
2022-10-25T10:39:32.557Z,14.95
2022-10-25T10:42:03.366Z,14.99
2022-10-25T10:44:34.686Z,15.02
2022-10-25T10:47:10.867Z,15.06
2022-10-25T10:49:42.695Z,15.10
2022-10-25T10:52:28.499Z,15.13
2022-10-25T10:54:56.911Z,15.19
2022-10-25T10:57:32.308Z,15.26
2022-10-25T11:00:01.382Z,15.28
2022-10-25T11:02:41.491Z,15.33
2022-10-25T11:05:22.921Z,15.36
2022-10-25T11:07:56.997Z,15.39
2022-10-25T11:10:27.593Z,15.41
2022-10-25T11:13:20.219Z,15.41
2022-10-25T11:16:18.630Z,15.41
2022-10-25T11:18:54.735Z,15.48
2022-10-25T11:21:40.297Z,15.54
2022-10-25T11:24:15.970Z,15.58
2022-10-25T11:26:54.263Z,15.62
2022-10-25T11:29:39.708Z,15.64
2022-10-25T11:32:43.158Z,15.64
2022-10-25T11:35:26.269Z,15.70
2022-10-25T11:38:02.798Z,15.75
2022-10-25T11:40:32.096Z,15.79
2022-10-25T11:43:14.256Z,15.87
2022-10-25T11:45:44.155Z,15.88
2022-10-25T11:48:47.372Z,15.95
2022-10-25T11:51:18.888Z,15.71
2022-10-25T11:54:05.375Z,16.03
2022-10-25T11:56:40.091Z,16.12
2022-10-25T11:59:17.495Z,16.15
2022-10-25T12:01:58.708Z,16.16
2022-10-25T12:04:45.934Z,16.18
2022-10-25T12:07:20.043Z,16.17
2022-10-25T12:10:03.025Z,16.18
2022-10-25T12:12:42.843Z,16.20
2022-10-25T12:15:18.244Z,16.21
2022-10-25T12:17:46.188Z,16.22
2022-10-25T12:20:21.530Z,16.27
2022-10-25T12:22:52.921Z,16.29
2022-10-25T12:25:26.276Z,16.29
2022-10-25T12:28:01.266Z,16.32
2022-10-25T12:30:31.526Z,16.32
2022-10-25T12:33:06.190Z,16.33
2022-10-25T12:35:40.968Z,16.34
2022-10-25T12:38:16.529Z,16.34
2022-10-25T12:40:50.488Z,16.36
2022-10-25T12:43:27.823Z,16.36
2022-10-25T12:46:05.334Z,16.35
2022-10-25T12:48:54.831Z,16.35
2022-10-25T12:51:38.096Z,16.35
2022-10-25T12:54:23.925Z,16.35
2022-10-25T12:57:06.669Z,16.34
2022-10-25T12:59:50.675Z,16.33
2022-10-25T13:02:55.944Z,16.28
2022-10-25T13:05:59.092Z,16.26
2022-10-25T13:08:29.629Z,16.26
2022-10-25T13:11:02.418Z,16.30
2022-10-25T13:13:33.798Z,16.31
2022-10-25T13:16:04.477Z,16.31
2022-10-25T13:18:45.237Z,16.33
2022-10-25T13:21:14.454Z,16.31
2022-10-25T13:24:01.069Z,16.32
2022-10-25T13:26:32.173Z,16.33
2022-10-25T13:29:03.650Z,16.33
2022-10-25T13:31:46.847Z,16.34
2022-10-25T13:34:36.825Z,16.31
2022-10-25T13:37:43.741Z,16.29
2022-10-25T13:40:24.686Z,16.31
2022-10-25T13:43:02.665Z,16.31
2022-10-25T13:45:46.298Z,16.32
2022-10-25T13:48:26.718Z,16.32
2022-10-25T13:50:56.741Z,16.30
2022-10-25T13:53:27.063Z,16.30
2022-10-25T13:56:00.185Z,16.31
2022-10-25T13:58:49.194Z,16.30
2022-10-25T14:01:54.772Z,16.29
2022-10-25T14:04:35.466Z,16.29
2022-10-25T14:07:40.787Z,16.28
2022-10-25T14:10:16.493Z,16.29
2022-10-25T14:12:48.665Z,16.28
2022-10-25T14:15:25.596Z,16.29
2022-10-25T14:17:53.813Z,16.29
2022-10-25T14:20:28.632Z,16.31
2022-10-25T14:23:00.693Z,16.30
2022-10-25T14:25:34.843Z,16.28
2022-10-25T14:28:15.147Z,16.29
2022-10-25T14:30:44.850Z,16.26
2022-10-25T14:33:31.233Z,16.25
2022-10-25T14:36:09.488Z,16.26
2022-10-25T14:38:49.806Z,16.23
2022-10-25T14:41:22.295Z,16.25
2022-10-25T14:43:50.468Z,16.21
2022-10-25T14:46:19.940Z,16.24
2022-10-25T14:48:49.652Z,16.24
2022-10-25T14:51:22.078Z,16.25
2022-10-25T14:53:56.838Z,16.24
2022-10-25T14:56:30.110Z,16.24
2022-10-25T14:58:59.006Z,16.23
2022-10-25T15:01:27.511Z,16.23
2022-10-25T15:03:59.145Z,16.23
2022-10-25T15:06:30.943Z,16.24
2022-10-25T15:09:37.083Z,16.21
2022-10-25T15:12:04.635Z,16.21
2022-10-25T15:14:32.793Z,16.19
2022-10-25T15:17:05.097Z,16.20
2022-10-25T15:19:34.048Z,16.16
2022-10-25T15:22:16.290Z,16.19
2022-10-25T15:24:45.920Z,16.12
2022-10-25T15:27:27.876Z,16.14
2022-10-25T15:29:55.963Z,16.09
2022-10-25T15:32:27.017Z,16.12
2022-10-25T15:34:56.731Z,16.10
2022-10-25T15:37:27.195Z,16.08
2022-10-25T15:39:56.399Z,16.07
2022-10-25T15:42:26.859Z,16.07
2022-10-25T15:44:55.415Z,16.04
2022-10-25T15:47:33.064Z,16.06
2022-10-25T15:50:03.965Z,16.03
2022-10-25T15:52:33.313Z,16.01
2022-10-25T15:55:01.235Z,15.99
2022-10-25T15:57:29.165Z,15.99
2022-10-25T15:59:57.229Z,15.97
2022-10-25T16:02:28.537Z,15.97
2022-10-25T16:04:56.580Z,15.94
2022-10-25T16:07:24.450Z,15.94
2022-10-25T16:09:53.783Z,15.94
2022-10-25T16:12:25.795Z,15.93
2022-10-25T16:14:54.205Z,15.87
2022-10-25T16:17:21.957Z,15.87
2022-10-25T16:19:49.841Z,15.85
2022-10-25T16:22:17.682Z,15.82
2022-10-25T16:24:45.494Z,15.80
2022-10-25T16:27:14.808Z,15.79
2022-10-25T16:29:42.714Z,15.73
2022-10-25T16:32:10.636Z,15.69
2022-10-25T16:34:42.363Z,15.66
2022-10-25T16:37:11.971Z,15.62
2022-10-25T16:39:40.202Z,15.60
2022-10-25T16:42:31.472Z,15.57
2022-10-25T16:45:00.181Z,15.52
2022-10-25T16:47:28.365Z,15.49
2022-10-25T16:49:56.263Z,15.47
2022-10-25T16:52:24.188Z,15.44
2022-10-25T16:54:52.108Z,15.41
2022-10-25T16:57:19.930Z,15.38
2022-10-25T16:59:50.528Z,15.37
2022-10-25T17:02:20.467Z,15.33
2022-10-25T17:04:49.483Z,15.28
2022-10-25T17:07:17.379Z,15.25
2022-10-25T17:09:45.379Z,15.21
2022-10-25T17:12:13.698Z,15.19
2022-10-25T17:14:41.908Z,15.13
2022-10-25T17:17:11.129Z,15.10
2022-10-25T17:19:39.038Z,15.05
2022-10-25T17:22:07.455Z,15.02
2022-10-25T17:24:37.521Z,14.98
2022-10-25T17:27:06.358Z,14.96
2022-10-25T17:29:34.377Z,14.92
2022-10-25T17:32:02.298Z,14.90
2022-10-25T17:34:32.129Z,14.90
2022-10-25T17:37:02.078Z,14.84
2022-10-25T17:39:30.218Z,14.81
2022-10-25T17:41:58.156Z,14.77
2022-10-25T17:44:26.066Z,14.74
2022-10-25T17:46:54.870Z,14.71
2022-10-25T17:49:24.451Z,14.69
2022-10-25T17:51:53.578Z,14.68
2022-10-25T17:54:21.580Z,14.64
2022-10-25T17:56:49.408Z,14.63
2022-10-25T17:59:17.392Z,14.62
2022-10-25T18:01:45.374Z,14.60
2022-10-25T18:04:13.296Z,14.59
2022-10-25T18:06:41.153Z,14.57
2022-10-25T18:09:11.006Z,14.57
2022-10-25T18:11:39.954Z,14.53
2022-10-25T18:14:07.834Z,14.51
2022-10-25T18:16:35.629Z,14.49
2022-10-25T18:19:07.073Z,14.49
2022-10-25T18:21:35.112Z,14.45
2022-10-25T18:24:04.861Z,14.44
2022-10-25T18:26:35.531Z,14.41
2022-10-25T18:29:03.645Z,14.37
2022-10-25T18:31:31.457Z,14.35
2022-10-25T18:34:03.407Z,14.33
2022-10-25T18:36:32.760Z,14.30
2022-10-25T18:39:00.862Z,14.29
2022-10-25T18:41:31.388Z,14.30
2022-10-25T18:44:02.382Z,14.29
2022-10-25T18:46:31.922Z,14.25
2022-10-25T18:49:00.010Z,14.23
2022-10-25T18:51:29.259Z,14.22
2022-10-25T18:53:57.802Z,14.19
2022-10-25T18:56:26.512Z,14.19
2022-10-25T18:58:56.740Z,14.17
2022-10-25T19:01:28.723Z,14.17
2022-10-25T19:03:57.865Z,14.12
2022-10-25T19:06:26.581Z,14.11
2022-10-25T19:08:55.348Z,14.09
2022-10-25T19:11:23.773Z,14.07
2022-10-25T19:13:54.792Z,14.06
2022-10-25T19:16:23.341Z,14.02
2022-10-25T19:18:52.620Z,13.98
2022-10-25T19:21:20.844Z,13.95
2022-10-25T19:23:48.898Z,13.92
2022-10-25T19:26:19.476Z,13.90
2022-10-25T19:28:48.403Z,13.88
2022-10-25T19:31:18.412Z,13.85
2022-10-25T19:33:47.052Z,13.83
2022-10-25T19:36:17.652Z,13.80
2022-10-25T19:38:48.149Z,13.78
2022-10-25T19:41:19.277Z,13.76
2022-10-25T19:43:48.212Z,13.74
2022-10-25T19:46:16.444Z,13.70
2022-10-25T19:48:44.374Z,13.69
2022-10-25T19:51:14.122Z,13.69
2022-10-25T19:53:43.704Z,13.67
2022-10-25T19:56:13.833Z,13.66
2022-10-25T19:58:42.242Z,13.61
2022-10-25T20:01:12.531Z,13.59
2022-10-25T20:03:41.625Z,13.57
2022-10-25T20:06:11.199Z,13.55
2022-10-25T20:08:41.066Z,13.52
2022-10-25T20:11:13.108Z,13.51
2022-10-25T20:13:41.246Z,13.45
2022-10-25T20:16:09.920Z,13.44
2022-10-25T20:18:40.340Z,13.44
2022-10-25T20:21:11.464Z,13.42
2022-10-25T20:23:40.450Z,13.41
2022-10-25T20:26:14.513Z,13.41
2022-10-25T20:28:42.925Z,13.36
2022-10-25T20:31:11.589Z,13.37
2022-10-25T20:33:40.095Z,13.35
2022-10-25T20:36:09.910Z,13.36
2022-10-25T20:38:38.846Z,13.34
2022-10-25T20:41:08.375Z,13.33
2022-10-25T20:43:38.483Z,13.32
2022-10-25T20:46:08.044Z,13.30
2022-10-25T20:48:36.859Z,13.26
2022-10-25T20:51:07.774Z,13.23
2022-10-25T20:53:36.815Z,13.23
2022-10-25T20:56:05.835Z,13.20
2022-10-25T20:58:35.031Z,13.18
2022-10-25T21:01:04.355Z,13.17
2022-10-25T21:03:33.125Z,13.14
2022-10-25T21:06:04.441Z,13.14
2022-10-25T21:08:33.287Z,13.11
2022-10-25T21:11:02.290Z,13.11
2022-10-25T21:13:32.478Z,13.11
2022-10-25T21:16:05.256Z,13.10
2022-10-25T21:18:34.313Z,12.82
2022-10-25T21:21:03.355Z,13.05
2022-10-25T21:23:32.149Z,13.07
2022-10-25T21:26:00.205Z,13.06
2022-10-25T21:28:28.197Z,13.06
2022-10-25T21:30:55.981Z,13.05
2022-10-25T21:33:23.775Z,13.04
2022-10-25T21:35:52.960Z,13.05
2022-10-25T21:38:20.940Z,13.02
2022-10-25T21:40:48.790Z,13.03
2022-10-25T21:43:16.610Z,13.02
2022-10-25T21:45:44.416Z,13.01
2022-10-25T21:48:12.320Z,13.00
2022-10-25T21:50:40.078Z,13.00
2022-10-25T21:53:09.357Z,13.01
2022-10-25T21:55:37.139Z,12.99
2022-10-25T21:58:04.980Z,12.98
2022-10-25T22:00:32.721Z,12.98
2022-10-25T22:03:00.499Z,12.98
2022-10-25T22:05:28.305Z,12.97
2022-10-25T22:07:56.161Z,12.96
2022-10-25T22:10:25.382Z,12.98
2022-10-25T22:12:54.906Z,12.97
2022-10-25T22:15:22.726Z,12.96
2022-10-25T22:17:50.583Z,12.95
2022-10-25T22:20:18.514Z,12.95
2022-10-25T22:22:46.603Z,12.95
2022-10-25T22:25:14.781Z,12.92
2022-10-25T22:30:18.294Z,12.90
2022-10-25T22:32:46.271Z,12.87
2022-10-25T22:35:14.533Z,12.86
2022-10-25T22:37:42.293Z,12.85
2022-10-25T22:40:10.971Z,12.85
2022-10-25T22:42:38.709Z,12.82
2022-10-25T22:45:09.029Z,12.83
2022-10-25T22:47:36.800Z,12.81
2022-10-25T22:50:04.740Z,12.81
2022-10-25T22:52:32.652Z,12.81
2022-10-25T22:55:00.495Z,12.80
2022-10-25T22:57:30.841Z,12.79
2022-10-25T22:59:58.627Z,12.77
2022-10-25T23:02:27.730Z,12.77
2022-10-25T23:04:55.482Z,12.74
2022-10-25T23:07:23.285Z,12.74
2022-10-25T23:09:51.060Z,12.72
2022-10-25T23:12:18.842Z,12.72
2022-10-25T23:14:46.656Z,12.71
2022-10-25T23:17:14.474Z,12.69
2022-10-25T23:19:43.612Z,12.69
2022-10-25T23:22:11.449Z,12.69
2022-10-25T23:24:39.172Z,12.69
2022-10-25T23:27:06.994Z,12.69
2022-10-25T23:29:34.871Z,12.68
2022-10-25T23:32:02.634Z,12.68
2022-10-25T23:34:32.150Z,12.68
2022-10-25T23:37:01.343Z,12.69
2022-10-25T23:39:29.128Z,12.68
2022-10-25T23:41:57.605Z,12.68
2022-10-25T23:44:25.460Z,12.67
2022-10-25T23:46:53.197Z,12.67
2022-10-25T23:49:20.956Z,12.67
2022-10-25T23:51:48.721Z,12.68
2022-10-25T23:54:17.904Z,12.69
2022-10-25T23:56:45.667Z,12.67
2022-10-25T23:59:13.484Z,12.69
